Time;durP1;ratioP1;P1;durP2;ratioP2;P2;SDS_P1;SDS_P2;PMS_P1;PMS_P2;Temp;Humidity;BMP_temperature;BMP_pressure;BME280_temperature;BME280_humidity;BME280_pressure;Samples;Min_cycle;Max_cycle;Signal;HPM_P1;HPM_P2
2022/10/05 00:01:51;;;;;;;3.80;2.22;;;15.40;99.90;;;;;;5034573;28;20403;-75
2022/10/05 00:04:20;;;;;;;7.47;2.35;;;15.50;99.90;;;;;;5016817;28;20022;-75
2022/10/05 00:07:11;;;;;;;7.32;3.05;;;15.40;99.90;;;;;;5034441;28;20476;-75
2022/10/05 00:09:36;;;;;;;4.25;2.40;;;15.40;99.90;;;;;;5034876;28;20025;-75
2022/10/05 00:12:17;;;;;;;10.00;2.85;;;15.40;99.90;;;;;;5035109;28;20495;-75
2022/10/05 00:14:48;;;;;;;9.02;2.90;;;15.40;99.90;;;;;;5016967;28;20025;-74
2022/10/05 00:17:22;;;;;;;11.55;2.67;;;15.40;99.90;;;;;;5033446;28;20021;-75
2022/10/05 00:19:51;;;;;;;6.22;2.30;;;15.40;99.90;;;;;;5016372;28;20488;-75
2022/10/05 00:22:28;;;;;;;4.80;2.17;;;15.40;99.90;;;;;;5034200;28;20053;-75
2022/10/05 00:24:59;;;;;;;9.63;2.90;;;15.40;99.90;;;;;;5016353;28;20038;-75
2022/10/05 00:27:36;;;;;;;3.88;1.98;;;15.40;99.90;;;;;;5034089;28;20080;-75
2022/10/05 00:30:24;;;;;;;11.20;2.05;;;15.40;99.90;;;;;;5034103;28;20099;-74
2022/10/05 00:32:50;;;;;;;5.88;1.95;;;15.40;99.90;;;;;;5034260;28;20033;-75
2022/10/05 00:35:17;;;;;;;4.50;1.45;;;15.40;99.90;;;;;;5016248;28;20028;-75
2022/10/05 00:37:44;;;;;;;3.33;1.40;;;15.40;99.90;;;;;;5034149;28;20021;-74
2022/10/05 00:40:12;;;;;;;4.28;2.13;;;15.40;99.90;;;;;;5033817;28;20061;-75
2022/10/05 00:42:55;;;;;;;3.50;2.00;;;15.40;99.90;;;;;;5033918;28;20129;-75
2022/10/05 00:45:27;;;;;;;2.95;1.67;;;15.40;99.90;;;;;;5033960;28;20473;-75
2022/10/05 00:48:11;;;;;;;3.55;1.52;;;15.40;99.90;;;;;;5016084;28;20028;-75
2022/10/05 00:51:03;;;;;;;8.45;2.15;;;15.40;99.90;;;;;;5033732;28;20033;-74
2022/10/05 00:53:43;;;;;;;2.30;0.82;;;15.40;99.90;;;;;;5034275;28;20396;-75
2022/10/05 00:56:38;;;;;;;3.85;0.98;;;15.40;99.90;;;;;;5015959;28;20075;-74
2022/10/05 00:59:17;;;;;;;2.05;1.27;;;15.30;99.90;;;;;;5033663;28;20017;-75
2022/10/05 01:02:09;;;;;;;4.45;1.35;;;15.40;99.90;;;;;;5033914;28;20430;-75
2022/10/05 01:04:52;;;;;;;3.08;0.88;;;15.50;99.90;;;;;;5033796;28;20558;-75
2022/10/05 01:07:37;;;;;;;7.43;1.35;;;15.40;99.90;;;;;;5016076;28;20029;-74
2022/10/05 01:10:42;;;;;;;3.55;1.33;;;15.40;99.90;;;;;;5033443;28;20017;-75
2022/10/05 01:13:17;;;;;;;2.50;1.52;;;15.40;99.90;;;;;;5033353;28;20049;-74
2022/10/05 01:16:05;;;;;;;3.67;1.30;;;15.40;99.90;;;;;;5033737;28;20112;-74
2022/10/05 01:18:48;;;;;;;2.43;0.77;;;15.40;99.90;;;;;;5033924;28;20030;-75
2022/10/05 01:21:20;;;;;;;1.83;0.65;;;15.40;99.90;;;;;;5033318;28;20101;-75
2022/10/05 01:24:00;;;;;;;1.58;0.75;;;15.40;99.90;;;;;;5033647;28;20484;-75
2022/10/05 01:26:37;;;;;;;2.10;0.70;;;15.40;99.90;;;;;;5033411;28;20030;-75
2022/10/05 01:29:10;;;;;;;1.35;0.88;;;15.40;99.90;;;;;;5033101;28;20022;-75
2022/10/05 01:31:47;;;;;;;2.17;0.90;;;15.40;99.90;;;;;;5033286;28;20070;-75
2022/10/05 01:34:27;;;;;;;3.55;1.73;;;15.40;99.90;;;;;;5033739;28;20028;-75
2022/10/05 01:37:11;;;;;;;4.05;1.63;;;15.40;99.90;;;;;;5033106;28;20029;-75
2022/10/05 01:40:01;;;;;;;4.93;1.70;;;15.40;99.90;;;;;;5033004;28;20130;-75
2022/10/05 01:42:56;;;;;;;4.95;2.53;;;15.30;99.90;;;;;;5015372;28;20048;-75
2022/10/05 01:45:57;;;;;;;6.05;2.10;;;15.30;99.90;;;;;;5018889;28;20381;-75
2022/10/05 01:49:01;;;;;;;5.00;1.92;;;15.30;99.90;;;;;;5033038;28;20017;-75
2022/10/05 01:51:29;;;;;;;3.97;2.28;;;15.10;99.90;;;;;;4952836;29;20090;-75
2022/10/05 01:54:04;;;;;;;4.80;2.38;;;15.10;99.90;;;;;;5017996;28;20042;-75
2022/10/05 01:56:35;;;;;;;10.60;2.50;;;15.10;99.90;;;;;;5033145;28;20478;-75
2022/10/05 01:59:14;;;;;;;5.43;2.35;;;15.00;99.90;;;;;;5033026;28;20423;-75
2022/10/05 02:01:46;;;;;;;6.82;2.90;;;15.00;99.90;;;;;;5032840;28;20049;-75
2022/10/05 02:04:21;;;;;;;8.07;2.75;;;14.90;99.90;;;;;;5015025;28;20060;-74
2022/10/05 02:06:49;;;;;;;8.30;3.30;;;14.90;99.90;;;;;;5032812;28;20021;-75
2022/10/05 02:09:19;;;;;;;9.65;2.75;;;14.90;99.90;;;;;;5032765;28;20025;-74
2022/10/05 02:11:51;;;;;;;7.68;3.17;;;15.00;99.90;;;;;;5032794;28;20024;-75
2022/10/05 02:14:22;;;;;;;6.82;2.50;;;14.90;99.90;;;;;;5032857;28;20075;-75
2022/10/05 02:16:50;;;;;;;6.95;3.67;;;15.00;99.90;;;;;;5033047;28;20108;-75
2022/10/05 02:19:33;;;;;;;10.35;3.42;;;15.00;99.90;;;;;;5032627;28;20026;-75
2022/10/05 02:22:03;;;;;;;7.53;3.78;;;15.00;99.90;;;;;;5032683;28;20052;-75
2022/10/05 02:24:34;;;;;;;6.38;3.20;;;15.00;99.90;;;;;;5032614;28;20447;-75
2022/10/05 02:27:02;;;;;;;14.23;4.03;;;15.00;99.90;;;;;;5032672;28;20057;-74
2022/10/05 02:29:31;;;;;;;7.75;3.70;;;15.00;99.90;;;;;;5032620;28;20503;-74
2022/10/05 02:32:02;;;;;;;7.85;3.58;;;14.90;99.90;;;;;;5032814;28;20021;-75
2022/10/05 02:34:46;;;;;;;9.80;3.55;;;14.90;99.90;;;;;;5032630;28;20076;-75
2022/10/05 02:37:25;;;;;;;9.32;3.67;;;14.80;99.90;;;;;;5014922;28;20112;-74
2022/10/05 02:39:59;;;;;;;7.90;3.33;;;14.80;99.90;;;;;;5032486;28;20065;-75
2022/10/05 02:42:25;;;;;;;8.38;3.58;;;14.70;99.90;;;;;;5017715;28;20036;-75
2022/10/05 02:45:28;;;;;;;6.80;2.88;;;14.70;99.90;;;;;;5018245;28;20391;-74
2022/10/05 02:47:56;;;;;;;6.05;3.25;;;14.70;99.90;;;;;;5035933;28;20030;-74
2022/10/05 02:50:49;;;;;;;7.65;2.80;;;14.70;99.90;;;;;;5035947;28;20018;-75
2022/10/05 02:53:29;;;;;;;6.18;2.55;;;14.60;99.90;;;;;;5036554;28;20029;-75
2022/10/05 02:55:54;;;;;;;18.08;4.15;;;14.60;99.90;;;;;;5036213;28;20424;-75
2022/10/05 02:58:41;;;;;;;3.33;2.10;;;14.70;99.90;;;;;;5035719;28;20109;-75
2022/10/05 03:01:33;;;;;;;6.53;3.13;;;14.60;99.90;;;;;;5038017;28;20040;-78
2022/10/05 03:04:23;;;;;;;7.78;2.63;;;14.60;99.90;;;;;;5019813;28;20026;-78
2022/10/05 03:07:13;;;;;;;7.82;3.13;;;14.70;99.90;;;;;;5037363;28;20064;-78
2022/10/05 03:10:07;;;;;;;6.40;2.63;;;14.70;99.90;;;;;;5037794;28;20033;-78
2022/10/05 03:12:39;;;;;;;9.95;2.85;;;14.60;99.90;;;;;;5020008;28;20411;-78
2022/10/05 03:15:41;;;;;;;6.78;3.38;;;14.70;99.90;;;;;;5037827;28;20504;-78
2022/10/05 03:18:53;;;;;;;6.30;3.08;;;14.70;99.90;;;;;;5019719;28;20029;-78
2022/10/05 03:21:56;;;;;;;8.25;3.22;;;14.70;99.90;;;;;;5019414;28;20500;-78
2022/10/05 03:24:55;;;;;;;10.63;3.72;;;14.70;99.90;;;;;;5019567;28;20029;-78
2022/10/05 03:27:41;;;;;;;6.07;2.78;;;14.70;99.90;;;;;;5037430;28;20029;-78
2022/10/05 03:30:21;;;;;;;8.48;3.15;;;14.70;99.90;;;;;;5037538;28;20017;-78
2022/10/05 03:33:02;;;;;;;8.68;2.67;;;14.80;99.90;;;;;;5037218;28;20049;-78
2022/10/05 03:35:30;;;;;;;6.05;2.97;;;14.80;99.90;;;;;;5037263;28;20092;-78
2022/10/05 03:38:04;;;;;;;8.75;3.20;;;14.70;99.90;;;;;;5037227;28;20484;-78
2022/10/05 03:40:58;;;;;;;6.00;2.67;;;14.80;99.90;;;;;;5036974;28;20558;-77
2022/10/05 03:43:51;;;;;;;9.05;3.47;;;14.80;99.90;;;;;;5037294;28;20041;-78
2022/10/05 03:46:40;;;;;;;7.03;3.38;;;14.80;99.90;;;;;;5036745;28;20034;-78
2022/10/05 03:49:24;;;;;;;9.98;3.17;;;14.80;99.90;;;;;;5019228;28;20040;-78
2022/10/05 03:52:00;;;;;;;5.40;2.80;;;14.80;99.90;;;;;;5036372;28;20064;-77
2022/10/05 03:54:37;;;;;;;4.50;2.42;;;14.80;99.90;;;;;;5035598;28;20480;-77
2022/10/05 03:57:15;;;;;;;5.93;2.58;;;14.80;99.90;;;;;;5017604;28;20116;-77
2022/10/05 04:00:03;;;;;;;9.15;2.65;;;14.80;99.90;;;;;;5035476;28;20087;-77
2022/10/05 04:03:01;;;;;;;7.33;2.67;;;14.80;99.90;;;;;;5035827;28;20063;-77
2022/10/05 04:05:41;;;;;;;10.13;3.03;;;14.80;99.90;;;;;;5035909;28;20075;-78
2022/10/05 04:08:38;;;;;;;6.28;2.15;;;14.80;99.90;;;;;;5017742;28;20026;-77
2022/10/05 04:11:14;;;;;;;4.35;2.47;;;14.80;99.90;;;;;;5007904;28;20037;-77
2022/10/05 04:13:49;;;;;;;8.35;3.10;;;14.90;99.90;;;;;;5035440;28;20028;-77
2022/10/05 04:16:18;;;;;;;15.68;3.20;;;14.80;99.90;;;;;;5035720;28;20119;-77
2022/10/05 04:18:53;;;;;;;6.32;2.67;;;14.90;99.90;;;;;;5017929;28;20029;-77
2022/10/05 04:21:25;;;;;;;5.18;2.47;;;14.90;99.90;;;;;;5036370;28;20044;-77
2022/10/05 04:24:10;;;;;;;3.20;2.38;;;14.90;99.90;;;;;;5034974;28;20104;-77
2022/10/05 04:26:49;;;;;;;3.90;2.03;;;14.90;99.90;;;;;;5035294;28;20484;-77
2022/10/05 04:29:33;;;;;;;5.22;2.40;;;14.80;99.90;;;;;;5035269;28;20017;-77
2022/10/05 04:32:14;;;;;;;3.72;2.13;;;14.90;99.90;;;;;;5035003;28;20081;-77
2022/10/05 04:34:54;;;;;;;4.00;1.92;;;14.80;99.90;;;;;;5034827;28;20021;-77
2022/10/05 04:37:34;;;;;;;4.63;2.35;;;14.90;99.90;;;;;;5035025;28;20030;-77
2022/10/05 04:40:10;;;;;;;7.32;1.95;;;14.90;99.90;;;;;;5017058;28;20495;-77
2022/10/05 04:42:49;;;;;;;3.63;1.00;;;14.90;99.90;;;;;;5035557;28;20022;-77
2022/10/05 04:45:29;;;;;;;;;;;14.90;99.90;;;;;;5035571;28;20485;-77
2022/10/05 04:48:18;;;;;;;3.60;1.25;;;15.00;99.90;;;;;;5034723;28;19909;-77
2022/10/05 04:51:07;;;;;;;12.23;2.00;;;15.00;99.90;;;;;;5017005;28;20021;-77
2022/10/05 04:53:55;;;;;;;3.67;1.27;;;15.00;99.90;;;;;;5017060;28;20068;-77
2022/10/05 04:56:41;;;;;;;3.65;1.67;;;15.00;99.90;;;;;;5034803;28;20018;-77
2022/10/05 04:59:19;;;;;;;1.73;1.08;;;15.00;99.90;;;;;;5034993;28;20060;-77
2022/10/05 05:02:02;;;;;;;2.10;0.95;;;15.00;99.90;;;;;;5034539;28;20029;-77
2022/10/05 05:05:06;;;;;;;1.52;0.47;;;15.00;99.90;;;;;;5034876;28;20026;-74
2022/10/05 05:07:34;;;;;;;3.13;0.70;;;15.00;99.90;;;;;;5015740;28;20112;-75
2022/10/05 05:10:21;;;;;;;1.83;0.50;;;15.00;99.90;;;;;;5015628;28;20432;-75
2022/10/05 05:13:14;;;;;;;0.60;0.30;;;15.00;99.90;;;;;;5033568;28;20025;-75
2022/10/05 05:15:48;;;;;;;2.08;0.10;;;15.00;99.90;;;;;;5015595;28;20571;-74
2022/10/05 05:18:40;;;;;;;0.93;0.25;;;15.00;99.90;;;;;;5033578;28;20033;-75
2022/10/05 05:21:23;;;;;;;4.57;0.20;;;15.00;99.90;;;;;;5033200;28;20465;-75
2022/10/05 05:24:15;;;;;;;0.30;0.10;;;15.00;99.90;;;;;;5033226;28;20116;-75
2022/10/05 05:27:04;;;;;;;0.10;0.00;;;15.10;99.90;;;;;;5015869;28;20032;-76
2022/10/05 05:29:58;;;;;;;1.58;0.10;;;15.10;99.90;;;;;;5034209;28;20053;-76
2022/10/05 05:32:43;;;;;;;1.15;0.00;;;15.20;99.90;;;;;;5033982;28;20017;-77
2022/10/05 05:35:29;;;;;;;0.32;0.00;;;15.20;99.90;;;;;;5015886;28;20030;-76
2022/10/05 05:38:23;;;;;;;0.93;0.28;;;15.20;99.90;;;;;;5033960;28;20075;-76
2022/10/05 05:41:15;;;;;;;0.80;0.00;;;15.20;99.90;;;;;;5015275;28;20036;-74
2022/10/05 05:43:50;;;;;;;1.35;0.00;;;15.20;99.90;;;;;;5032978;28;20029;-74
2022/10/05 05:46:25;;;;;;;5.40;0.10;;;15.20;99.90;;;;;;5033217;28;20041;-74
2022/10/05 05:48:52;;;;;;;0.17;0.00;;;15.20;99.90;;;;;;5033157;28;20114;-74
2022/10/05 05:51:24;;;;;;;0.05;0.00;;;15.20;99.90;;;;;;5032989;28;20025;-74
2022/10/05 05:53:56;;;;;;;5.28;0.00;;;15.20;99.90;;;;;;5033343;28;20065;-75
2022/10/05 05:56:38;;;;;;;2.30;0.00;;;15.20;99.90;;;;;;5033545;28;20025;-74
2022/10/05 05:59:16;;;;;;;1.95;0.00;;;15.20;99.90;;;;;;5033539;28;20033;-74
2022/10/05 06:01:50;;;;;;;1.63;0.00;;;15.20;99.90;;;;;;5032983;28;20036;-76
2022/10/05 06:04:25;;;;;;;1.17;0.00;;;15.20;99.90;;;;;;5015303;28;20060;-74
2022/10/05 06:06:56;;;;;;;3.22;0.10;;;15.10;99.90;;;;;;5015087;28;20021;-73
2022/10/05 06:10:03;;;;;;;1.45;0.10;;;15.20;99.90;;;;;;5032967;28;20029;-75
2022/10/05 06:12:35;;;;;;;2.30;0.22;;;15.20;99.90;;;;;;5033023;28;20108;-75
2022/10/05 06:15:50;;;;;;;0.88;0.40;;;15.20;99.90;;;;;;5016056;28;20476;-76
2022/10/05 06:18:19;;;;;;;0.20;0.00;;;15.20;99.90;;;;;;4957189;29;20450;-75
2022/10/05 06:20:58;;;;;;;0.60;0.00;;;15.20;99.90;;;;;;4956277;29;20030;-75
2022/10/05 06:23:39;;;;;;;1.75;0.15;;;15.20;99.90;;;;;;4986285;28;20389;-75
2022/10/05 06:26:15;;;;;;;1.30;0.22;;;15.20;99.90;;;;;;5036861;28;20463;-75
2022/10/05 06:28:41;;;;;;;0.60;0.00;;;15.20;99.90;;;;;;5036533;28;20104;-74
2022/10/05 06:31:38;;;;;;;2.30;0.45;;;15.20;99.90;;;;;;5036309;28;20021;-76
2022/10/05 06:34:31;;;;;;;0.98;0.20;;;15.20;99.90;;;;;;5035939;28;20029;-74
2022/10/05 06:37:08;;;;;;;0.80;0.20;;;15.20;99.90;;;;;;5036623;28;20029;-74
2022/10/05 06:39:53;;;;;;;0.40;0.15;;;15.20;99.90;;;;;;5036095;28;20022;-74
2022/10/05 06:42:49;;;;;;;0.55;0.10;;;15.20;99.90;;;;;;5036338;28;20040;-74
2022/10/05 06:45:37;;;;;;;1.13;0.10;;;15.20;99.90;;;;;;5036222;28;20026;-74
2022/10/05 06:48:34;;;;;;;0.75;0.35;;;15.20;99.90;;;;;;5018172;28;20443;-74
2022/10/05 06:51:25;;;;;;;3.15;0.20;;;15.30;99.90;;;;;;5036228;28;20087;-74
2022/10/05 06:54:02;;;;;;;1.08;0.03;;;15.30;99.90;;;;;;5035163;28;20404;-73
2022/10/05 06:56:33;;;;;;;1.23;0.10;;;15.30;99.90;;;;;;5018220;28;20455;-76
2022/10/05 06:58:59;;;;;;;2.58;0.22;;;15.30;99.90;;;;;;5036217;28;20024;-73
2022/10/05 07:01:42;;;;;;;1.20;0.03;;;15.30;99.90;;;;;;5035889;28;20096;-76
2022/10/05 07:04:40;;;;;;;1.67;0.10;;;15.40;99.90;;;;;;5017913;28;20071;-76
2022/10/05 07:07:22;;;;;;;0.65;0.10;;;15.40;99.90;;;;;;5036235;28;20033;-75
2022/10/05 07:10:08;;;;;;;0.80;0.25;;;15.40;99.90;;;;;;5035585;28;20024;-73
2022/10/05 07:13:25;;;;;;;2.42;0.20;;;15.50;99.90;;;;;;5035587;28;20075;-76
2022/10/05 07:16:10;;;;;;;0.45;0.00;;;15.50;99.90;;;;;;5013683;28;20048;-73
2022/10/05 07:18:57;;;;;;;1.48;0.10;;;15.40;99.90;;;;;;5035557;28;20076;-74
2022/10/05 07:21:26;;;;;;;2.20;0.22;;;15.50;99.90;;;;;;5035288;28;20026;-76
2022/10/05 07:24:10;;;;;;;2.15;0.35;;;15.40;99.90;;;;;;5035448;28;20025;-74
2022/10/05 07:26:36;;;;;;;0.85;0.30;;;15.40;99.90;;;;;;5035079;28;20107;-74
2022/10/05 07:29:22;;;;;;;2.88;0.77;;;15.40;99.90;;;;;;5017425;28;20441;-74
2022/10/05 07:32:21;;;;;;;2.55;0.40;;;15.40;99.90;;;;;;5035434;28;20056;-74
2022/10/05 07:35:00;;;;;;;2.75;0.38;;;15.40;99.90;;;;;;5030364;28;20396;-74
2022/10/05 07:40:18;;;;;;;2.40;0.28;;;15.50;99.90;;;;;;5035651;28;20052;-74
2022/10/05 07:43:02;;;;;;;4.90;0.40;;;15.40;99.90;;;;;;5034938;28;20457;-73
2022/10/05 07:45:57;;;;;;;1.15;0.38;;;15.50;99.90;;;;;;5035302;28;20030;-76
2022/10/05 07:48:44;;;;;;;0.80;0.30;;;15.40;99.90;;;;;;5035260;28;20100;-74
2022/10/05 07:51:39;;;;;;;1.67;0.35;;;15.50;99.90;;;;;;5034857;28;20025;-74
2022/10/05 07:54:17;;;;;;;1.67;0.47;;;15.50;99.90;;;;;;5035299;28;20368;-74
2022/10/05 07:56:47;;;;;;;1.45;0.20;;;15.50;99.90;;;;;;5017026;28;20021;-74
2022/10/05 07:59:29;;;;;;;1.90;0.30;;;15.50;99.90;;;;;;5035022;28;20481;-73
2022/10/05 08:02:05;;;;;;;0.88;0.30;;;15.50;99.90;;;;;;5034662;28;20511;-74
2022/10/05 08:04:43;;;;;;;1.30;0.68;;;15.60;99.90;;;;;;5035089;28;20022;-74
2022/10/05 08:07:14;;;;;;;3.07;0.30;;;15.60;99.90;;;;;;5034550;28;20113;-74
2022/10/05 08:10:04;;;;;;;1.00;0.20;;;15.60;99.90;;;;;;5034906;28;20124;-74
2022/10/05 08:12:49;;;;;;;0.73;0.20;;;15.70;99.90;;;;;;5016636;28;20029;-74
2022/10/05 08:15:24;;;;;;;3.20;0.30;;;15.70;99.90;;;;;;5034472;28;20026;-74
2022/10/05 08:17:59;;;;;;;0.50;0.20;;;15.70;99.90;;;;;;5016583;28;20161;-74
2022/10/05 08:20:44;;;;;;;1.50;0.47;;;15.70;99.90;;;;;;5034333;28;20392;-74
2022/10/05 08:23:24;;;;;;;3.63;0.60;;;15.70;99.90;;;;;;5041607;23;20081;-74
2022/10/05 08:25:56;;;;;;;1.15;0.68;;;15.80;99.90;;;;;;5014955;28;20034;-73
2022/10/05 08:28:26;;;;;;;4.22;0.85;;;15.80;99.90;;;;;;5014879;28;20030;-73
2022/10/05 08:31:13;;;;;;;3.10;0.30;;;15.80;99.90;;;;;;5015253;28;20559;-76
2022/10/05 08:33:54;;;;;;;2.05;0.40;;;15.90;99.90;;;;;;5014601;28;20041;-75
2022/10/05 08:36:29;;;;;;;1.88;0.20;;;15.80;99.90;;;;;;5014349;28;20029;-74
2022/10/05 08:38:58;;;;;;;5.75;0.30;;;15.90;99.90;;;;;;5012298;28;20022;-75
2022/10/05 08:42:01;;;;;;;2.40;0.73;;;15.80;99.90;;;;;;5014126;28;20060;-75
2022/10/05 08:44:32;;;;;;;0.38;0.13;;;15.90;99.90;;;;;;5014756;28;20428;-74
2022/10/05 08:47:13;;;;;;;0.75;0.35;;;15.90;99.90;;;;;;5012724;28;20044;-74
2022/10/05 08:49:57;;;;;;;2.90;0.30;;;16.00;99.90;;;;;;5012681;28;20443;-74
2022/10/05 08:52:37;;;;;;;0.45;0.22;;;16.00;99.90;;;;;;5012760;28;20030;-74
2022/10/05 08:55:09;;;;;;;1.40;0.20;;;16.00;99.90;;;;;;5014046;28;20121;-75
2022/10/05 08:57:49;;;;;;;2.05;0.25;;;16.10;99.90;;;;;;5012613;28;20540;-75
2022/10/05 09:00:24;;;;;;;2.25;0.40;;;16.10;99.90;;;;;;5012600;28;20370;-75
2022/10/05 09:03:20;;;;;;;3.08;0.38;;;16.10;99.90;;;;;;5014304;28;20472;-73
2022/10/05 09:06:32;;;;;;;2.70;0.22;;;16.10;99.90;;;;;;5013768;28;20021;-73
2022/10/05 09:09:16;;;;;;;0.98;0.20;;;16.20;99.90;;;;;;5012489;28;20026;-75
2022/10/05 09:11:54;;;;;;;2.17;0.20;;;16.20;99.90;;;;;;5013633;28;20065;-75
2022/10/05 09:14:54;;;;;;;2.05;0.57;;;16.30;99.90;;;;;;5014221;28;20026;-74
2022/10/05 09:17:37;;;;;;;0.68;0.10;;;16.30;99.90;;;;;;5012439;28;20054;-75
2022/10/05 09:20:10;;;;;;;3.47;0.52;;;16.30;99.90;;;;;;5013531;28;20021;-75
2022/10/05 09:22:56;;;;;;;2.83;0.20;;;16.40;99.90;;;;;;5013380;28;20049;-75
2022/10/05 09:25:42;;;;;;;0.17;0.13;;;16.50;99.90;;;;;;5013483;28;20440;-75
2022/10/05 09:28:31;;;;;;;0.60;0.10;;;16.50;99.90;;;;;;5013492;28;20037;-75
2022/10/05 09:31:16;;;;;;;;;;;16.50;99.90;;;;;;5014182;28;20026;-75
2022/10/05 09:34:19;;;;;;;1.00;0.08;;;16.60;99.90;;;;;;5013498;28;19912;-75
2022/10/05 09:37:12;;;;;;;3.90;0.38;;;16.60;99.90;;;;;;5012116;28;20041;-75
2022/10/05 09:39:46;;;;;;;0.13;0.13;;;16.60;99.90;;;;;;5014037;28;20038;-75
2022/10/05 09:42:43;;;;;;;1.80;0.20;;;16.70;99.90;;;;;;5012094;28;20124;-75
2022/10/05 09:45:30;;;;;;;2.22;0.20;;;16.80;99.90;;;;;;5013231;28;20030;-75
2022/10/05 09:48:14;;;;;;;1.77;0.10;;;17.00;99.90;;;;;;5013297;28;20022;-76
2022/10/05 09:51:29;;;;;;;0.77;0.38;;;17.10;99.90;;;;;;5015199;28;20093;-76
2022/10/05 09:54:04;;;;;;;0.32;0.25;;;17.20;99.90;;;;;;5016002;28;20045;-76
2022/10/05 09:57:07;;;;;;;2.72;0.10;;;17.20;99.90;;;;;;5017715;28;20461;-76
2022/10/05 09:59:57;;;;;;;1.23;0.17;;;17.10;99.90;;;;;;5017150;28;20030;-76
2022/10/05 10:02:37;;;;;;;1.20;0.20;;;17.10;99.90;;;;;;5017164;28;20076;-76
2022/10/05 10:05:15;;;;;;;1.75;0.00;;;17.00;99.90;;;;;;5015794;28;20473;-76
2022/10/05 10:08:19;;;;;;;0.63;0.28;;;17.10;99.90;;;;;;5015830;28;20477;-76
2022/10/05 10:10:45;;;;;;;1.85;0.20;;;17.10;99.90;;;;;;5000828;28;20084;-76
2022/10/05 10:13:38;;;;;;;1.77;0.40;;;17.10;99.90;;;;;;5016950;28;20017;-74
2022/10/05 10:16:26;;;;;;;0.93;0.38;;;17.20;99.90;;;;;;5016861;28;20054;-76
2022/10/05 10:19:13;;;;;;;1.45;0.40;;;17.40;99.90;;;;;;5017071;28;20117;-75
2022/10/05 10:22:05;;;;;;;3.47;0.30;;;17.40;99.90;;;;;;5016685;28;20034;-76
2022/10/05 10:25:08;;;;;;;5.30;0.80;;;17.40;99.90;;;;;;5016831;28;20026;-76
2022/10/05 10:27:36;;;;;;;1.20;0.40;;;17.30;99.90;;;;;;5016730;28;20484;-76
2022/10/05 10:30:35;;;;;;;0.60;0.20;;;17.20;99.90;;;;;;5016583;28;20033;-76
2022/10/05 10:33:20;;;;;;;4.57;0.28;;;17.20;99.90;;;;;;5017193;28;20029;-76
2022/10/05 10:36:11;;;;;;;1.48;0.20;;;17.10;99.90;;;;;;5016839;28;20022;-75
2022/10/05 10:39:14;;;;;;;2.85;0.45;;;17.00;99.90;;;;;;5016602;28;20022;-76
2022/10/05 10:41:51;;;;;;;0.43;0.20;;;17.10;99.90;;;;;;5003152;28;20057;-75
2022/10/05 10:44:49;;;;;;;0.47;0.13;;;17.00;99.90;;;;;;5016395;28;20469;-75
2022/10/05 10:47:33;;;;;;;1.23;0.00;;;17.00;99.90;;;;;;5016323;28;20068;-75
2022/10/05 10:50:05;;;;;;;1.92;0.20;;;17.00;99.90;;;;;;5016554;28;20026;-76
2022/10/05 10:52:38;;;;;;;2.65;0.20;;;17.00;99.90;;;;;;5015075;28;20025;-76
2022/10/05 10:55:36;;;;;;;1.40;0.10;;;17.00;99.90;;;;;;5016150;28;20480;-75
2022/10/05 10:58:28;;;;;;;2.80;0.40;;;17.00;99.90;;;;;;4989254;28;20030;-76
2022/10/05 11:01:12;;;;;;;2.35;0.15;;;17.00;99.90;;;;;;5015405;28;20148;-75
2022/10/05 11:04:15;;;;;;;1.25;0.17;;;17.00;99.90;;;;;;5014456;28;20116;-76
2022/10/05 11:07:15;;;;;;;1.38;0.30;;;17.10;99.90;;;;;;5015996;28;20049;-76
2022/10/05 11:10:33;;;;;;;0.68;0.10;;;17.10;99.90;;;;;;5015803;28;20026;-76
2022/10/05 11:13:15;;;;;;;1.05;0.10;;;17.20;99.90;;;;;;4961723;28;20026;-76
2022/10/05 11:16:06;;;;;;;1.00;0.20;;;17.20;99.90;;;;;;5015839;28;20026;-76
2022/10/05 11:19:02;;;;;;;1.05;0.20;;;17.20;99.90;;;;;;5014559;28;20026;-75
2022/10/05 11:21:56;;;;;;;2.58;0.43;;;17.20;99.90;;;;;;5015540;28;20038;-75
2022/10/05 11:24:42;;;;;;;4.78;0.63;;;17.30;99.90;;;;;;5015826;28;20037;-76
2022/10/05 11:27:28;;;;;;;2.53;0.73;;;17.40;99.90;;;;;;5014225;28;20489;-76
2022/10/05 11:30:19;;;;;;;0.98;0.20;;;17.40;99.90;;;;;;5015388;28;20076;-75
2022/10/05 11:33:10;;;;;;;1.63;0.28;;;17.40;99.90;;;;;;5014158;28;20033;-76
2022/10/05 11:35:53;;;;;;;1.83;0.40;;;17.40;99.90;;;;;;5013986;28;20073;-76
2022/10/05 11:38:37;;;;;;;1.67;0.40;;;17.40;99.90;;;;;;5015564;28;20018;-75
2022/10/05 11:41:26;;;;;;;1.67;0.32;;;17.40;99.90;;;;;;5015026;28;20068;-76
2022/10/05 11:44:14;;;;;;;3.28;0.85;;;17.40;99.90;;;;;;5014125;28;20036;-75
2022/10/05 11:47:07;;;;;;;6.10;0.65;;;17.40;99.90;;;;;;5013555;28;20065;-75
2022/10/05 11:49:38;;;;;;;1.50;0.10;;;17.40;99.90;;;;;;5015407;28;20045;-75
2022/10/05 11:52:10;;;;;;;2.22;0.90;;;17.40;99.90;;;;;;5015670;28;20025;-75
2022/10/05 11:54:41;;;;;;;0.40;0.30;;;17.50;99.90;;;;;;5013559;28;20022;-75
2022/10/05 11:57:15;;;;;;;4.60;1.10;;;17.40;99.90;;;;;;5014993;28;20022;-75
2022/10/05 12:00:10;;;;;;;3.05;0.45;;;17.80;99.90;;;;;;5015130;28;20054;-75
2022/10/05 12:02:59;;;;;;;0.60;0.10;;;17.40;99.90;;;;;;5014856;28;20032;-75
2022/10/05 12:05:55;;;;;;;5.40;0.38;;;17.40;99.90;;;;;;5013597;28;20115;-75
2022/10/05 12:08:38;;;;;;;0.20;0.10;;;17.40;99.90;;;;;;5015434;28;20022;-75
2022/10/05 12:11:22;;;;;;;1.00;0.13;;;17.40;99.90;;;;;;5014588;28;20022;-75
2022/10/05 12:14:19;;;;;;;3.00;0.35;;;17.40;99.90;;;;;;5014742;28;20497;-75
2022/10/05 12:16:51;;;;;;;3.28;0.40;;;17.50;99.90;;;;;;4929233;28;20078;-75
2022/10/05 12:19:28;;;;;;;2.15;0.20;;;17.50;99.90;;;;;;5014606;28;20025;-75
2022/10/05 12:22:08;;;;;;;2.63;0.40;;;17.60;99.90;;;;;;5014458;28;20060;-74
2022/10/05 12:24:37;;;;;;;1.90;0.40;;;17.60;99.90;;;;;;5013242;28;20054;-74
2022/10/05 12:27:18;;;;;;;1.27;0.63;;;17.90;99.90;;;;;;5014854;28;20492;-74
2022/10/05 12:29:53;;;;;;;0.47;0.35;;;17.80;99.90;;;;;;5014577;28;20391;-74
2022/10/05 12:33:23;;;;;;;1.02;0.20;;;17.90;99.90;;;;;;5014058;28;20128;-74
2022/10/05 12:36:01;;;;;;;2.35;0.35;;;17.90;99.90;;;;;;4918951;29;20087;-76
2022/10/05 12:38:48;;;;;;;1.33;0.10;;;17.80;99.90;;;;;;4935214;29;20059;-76
2022/10/05 12:41:24;;;;;;;2.88;0.38;;;17.80;99.90;;;;;;4994576;28;20448;-76
2022/10/05 12:44:25;;;;;;;2.20;0.40;;;17.90;99.90;;;;;;5014235;28;20503;-76
2022/10/05 12:47:15;;;;;;;1.13;0.20;;;17.80;99.90;;;;;;5003346;28;20116;-76
2022/10/05 12:49:48;;;;;;;1.60;0.47;;;17.70;99.90;;;;;;5014182;28;20022;-76
2022/10/05 12:52:54;;;;;;;1.73;0.40;;;17.80;99.90;;;;;;5013991;28;20054;-76
2022/10/05 12:55:39;;;;;;;1.50;0.10;;;17.90;99.90;;;;;;5014239;28;20481;-76
2022/10/05 12:58:17;;;;;;;1.02;0.30;;;17.80;99.90;;;;;;5012735;28;20384;-76
2022/10/05 13:00:51;;;;;;;1.77;0.13;;;17.90;99.90;;;;;;5012614;28;20026;-76
2022/10/05 13:03:24;;;;;;;0.30;0.15;;;17.90;99.90;;;;;;5013857;28;20018;-76
2022/10/05 13:06:14;;;;;;;4.45;0.20;;;18.10;99.90;;;;;;5012498;28;20477;-76
2022/10/05 13:08:52;;;;;;;2.20;0.30;;;17.90;99.90;;;;;;5012523;28;20488;-76
2022/10/05 13:11:27;;;;;;;0.50;0.20;;;17.90;99.90;;;;;;5014868;28;20033;-75
2022/10/05 13:14:30;;;;;;;1.27;0.10;;;18.00;99.90;;;;;;5014455;28;20455;-74
2022/10/05 13:17:03;;;;;;;5.18;0.22;;;18.00;99.90;;;;;;5062325;23;20099;-75
2022/10/05 13:19:44;;;;;;;0.82;0.10;;;18.00;99.90;;;;;;5014430;28;20049;-75
2022/10/05 13:22:26;;;;;;;1.38;0.20;;;17.90;99.90;;;;;;5014264;28;20025;-75
2022/10/05 13:25:06;;;;;;;5.93;0.20;;;17.90;99.90;;;;;;5013256;28;20041;-75
2022/10/05 13:27:43;;;;;;;0.40;0.10;;;18.00;99.90;;;;;;5013436;28;20117;-74
2022/10/05 13:30:14;;;;;;;1.25;0.40;;;18.10;99.90;;;;;;5013974;28;20373;-75
2022/10/05 13:32:46;;;;;;;1.65;0.45;;;18.10;99.90;;;;;;5013430;28;20513;-75
2022/10/05 13:35:33;;;;;;;2.70;0.73;;;18.10;99.90;;;;;;5013531;28;20018;-75
2022/10/05 13:38:23;;;;;;;2.03;0.38;;;18.00;99.90;;;;;;5013702;28;20032;-75
2022/10/05 13:41:14;;;;;;;0.75;0.45;;;18.00;99.90;;;;;;5012076;28;20018;-75
2022/10/05 13:44:01;;;;;;;0.60;0.30;;;18.10;99.90;;;;;;5013548;28;20028;-75
2022/10/05 13:46:38;;;;;;;3.45;0.63;;;18.20;99.90;;;;;;5013354;28;20038;-75
2022/10/05 13:49:14;;;;;;;3.40;0.13;;;18.20;99.90;;;;;;5013358;28;20045;-75
2022/10/05 13:51:55;;;;;;;1.05;0.10;;;18.20;99.90;;;;;;5012149;28;20030;-75
2022/10/05 13:54:58;;;;;;;0.20;0.10;;;18.20;99.90;;;;;;5013436;28;20100;-75
2022/10/05 13:58:05;;;;;;;1.98;0.43;;;18.30;99.90;;;;;;5013663;28;20393;-75
2022/10/05 14:00:43;;;;;;;2.92;0.57;;;18.50;99.90;;;;;;4967107;28;20062;-75
2022/10/05 14:03:28;;;;;;;1.75;0.20;;;18.50;99.90;;;;;;5013451;28;20026;-75
2022/10/05 14:06:00;;;;;;;3.50;0.28;;;18.70;99.90;;;;;;5013090;28;20077;-75
2022/10/05 14:08:35;;;;;;;0.40;0.20;;;18.90;99.90;;;;;;5011919;28;20479;-75
2022/10/05 14:11:25;;;;;;;1.38;0.20;;;19.00;99.90;;;;;;5013499;28;20496;-75
2022/10/05 14:13:59;;;;;;;0.30;0.10;;;19.10;99.90;;;;;;5011928;28;20076;-75